createdAt,value
2018-09-01T00:01:04.317Z,10.20
2018-09-01T00:03:33.269Z,10.20
2018-09-01T00:06:02.201Z,10.30
2018-09-01T00:08:31.204Z,10.20
2018-09-01T00:11:00.354Z,10.20
2018-09-01T00:13:29.286Z,10.10
2018-09-01T00:15:58.210Z,10.10
2018-09-01T00:18:27.174Z,10.00
2018-09-01T00:20:56.093Z,10.10
2018-09-01T00:23:25.045Z,10.00
2018-09-01T00:25:54.253Z,10.00
2018-09-01T00:28:23.193Z,9.90
2018-09-01T00:30:52.114Z,9.90
2018-09-01T00:33:21.078Z,9.80
2018-09-01T00:35:50.037Z,9.90
2018-09-01T00:38:24.658Z,9.80
2018-09-01T00:40:53.577Z,9.90
2018-09-01T00:43:22.502Z,9.90
2018-09-01T00:45:51.706Z,9.80
2018-09-01T00:48:20.645Z,9.80
2018-09-01T00:50:49.599Z,9.80
2018-09-01T00:53:18.655Z,9.80
2018-09-01T00:55:47.642Z,9.70
2018-09-01T00:58:16.606Z,9.70
2018-09-01T01:00:45.565Z,9.70
2018-09-01T01:03:14.549Z,9.70
2018-09-01T01:05:43.489Z,9.70
2018-09-01T01:08:12.429Z,9.70
2018-09-01T01:10:41.381Z,9.60
2018-09-01T01:13:10.328Z,9.60
2018-09-01T01:15:39.293Z,9.70
2018-09-01T01:18:08.269Z,9.60
2018-09-01T01:20:37.194Z,9.60
2018-09-01T01:23:06.182Z,9.50
2018-09-01T01:25:35.163Z,9.50
2018-09-01T01:28:04.141Z,9.50
2018-09-01T01:30:33.190Z,9.50
2018-09-01T01:33:02.162Z,9.40
2018-09-01T01:35:31.133Z,9.40
2018-09-01T01:38:00.057Z,9.40
2018-09-01T01:40:29.025Z,9.30
2018-09-01T01:42:57.926Z,9.30
2018-09-01T01:45:29.330Z,9.40
2018-09-01T01:47:58.770Z,9.40
2018-09-01T01:50:27.718Z,9.30
2018-09-01T01:52:56.693Z,9.30
2018-09-01T01:55:25.650Z,9.30
2018-09-01T01:57:54.577Z,9.20
2018-09-01T02:00:23.550Z,9.30
2018-09-01T02:02:52.485Z,9.20
2018-09-01T02:05:25.706Z,9.20
2018-09-01T02:07:54.628Z,9.20
2018-09-01T02:10:23.614Z,9.20
2018-09-01T02:12:52.553Z,9.20
2018-09-01T02:15:21.482Z,9.20
2018-09-01T02:17:50.397Z,9.20
2018-09-01T02:20:19.382Z,9.20
2018-09-01T02:22:48.325Z,9.20
2018-09-01T02:25:18.045Z,9.10
2018-09-01T02:27:47.013Z,9.10
2018-09-01T02:30:15.984Z,9.10
2018-09-01T02:32:44.989Z,9.10
2018-09-01T02:35:13.996Z,9.10
2018-09-01T02:37:42.949Z,9.10
2018-09-01T02:40:11.894Z,9.00
2018-09-01T02:42:40.813Z,9.00
2018-09-01T02:45:09.753Z,9.00
2018-09-01T02:47:38.669Z,8.90
2018-09-01T02:50:07.677Z,8.90
2018-09-01T02:52:36.569Z,8.90
2018-09-01T02:55:06.174Z,8.80
2018-09-01T02:57:35.100Z,8.80
2018-09-01T03:00:08.399Z,8.80
2018-09-01T03:02:43.368Z,8.80
2018-09-01T03:05:13.082Z,8.70
2018-09-01T03:07:42.013Z,8.70
2018-09-01T03:10:11.017Z,8.70
2018-09-01T03:12:39.952Z,8.70
2018-09-01T03:15:08.896Z,8.70
2018-09-01T03:17:37.823Z,8.70
2018-09-01T03:20:06.769Z,8.70
2018-09-01T03:22:35.697Z,8.70
2018-09-01T03:25:04.929Z,8.60
2018-09-01T03:27:34.911Z,8.60
2018-09-01T03:30:04.029Z,8.60
2018-09-01T03:32:32.979Z,8.60
2018-09-01T03:35:01.961Z,8.60
2018-09-01T03:37:30.963Z,8.60
2018-09-01T03:39:59.955Z,8.50
2018-09-01T03:42:28.890Z,8.50
2018-09-01T03:44:57.854Z,8.40
2018-09-01T03:47:26.797Z,8.40
2018-09-01T03:49:55.728Z,8.40
2018-09-01T03:52:24.658Z,8.40
2018-09-01T03:54:53.602Z,8.40
2018-09-01T03:57:22.554Z,8.40
2018-09-01T03:59:51.542Z,8.30
2018-09-01T04:02:20.493Z,8.20
2018-09-01T04:04:49.449Z,8.20
2018-09-01T04:07:18.412Z,8.10
2018-09-01T04:09:47.354Z,8.10
2018-09-01T04:12:16.291Z,8.10
2018-09-01T04:14:45.245Z,8.10
2018-09-01T04:17:14.192Z,8.10
2018-09-01T04:19:43.125Z,8.10
2018-09-01T04:22:12.078Z,8.00
2018-09-01T04:24:41.039Z,8.00
2018-09-01T04:27:09.978Z,8.00
2018-09-01T04:29:38.955Z,8.00
2018-09-01T04:32:08.011Z,7.90
2018-09-01T04:34:36.965Z,7.90
2018-09-01T04:37:05.978Z,7.80
2018-09-01T04:39:34.930Z,7.80
2018-09-01T04:42:03.875Z,7.90
2018-09-01T04:44:32.795Z,7.90
2018-09-01T04:47:01.784Z,7.80
2018-09-01T04:49:30.717Z,7.80
2018-09-01T04:51:59.637Z,7.90
2018-09-01T04:54:28.571Z,7.90
2018-09-01T04:56:57.514Z,7.80
2018-09-01T04:59:26.469Z,7.80
2018-09-01T05:01:55.429Z,7.80
2018-09-01T05:04:24.393Z,7.80
2018-09-01T05:06:53.357Z,7.80
2018-09-01T05:09:22.329Z,7.90
2018-09-01T05:11:51.274Z,7.90
2018-09-01T05:14:20.209Z,7.90
2018-09-01T05:16:49.176Z,7.90
2018-09-01T05:19:18.125Z,7.90
2018-09-01T05:21:47.128Z,8.00
2018-09-01T05:24:16.063Z,8.00
2018-09-01T05:26:45.001Z,8.10
2018-09-01T05:29:13.929Z,8.10
2018-09-01T05:31:42.913Z,8.20
2018-09-01T05:34:11.882Z,8.30
2018-09-01T05:36:40.951Z,8.40
2018-09-01T05:39:09.942Z,8.60
2018-09-01T05:41:39.079Z,8.70
2018-09-01T05:44:08.261Z,8.80
2018-09-01T05:46:37.245Z,8.90
2018-09-01T05:49:06.173Z,9.00
2018-09-01T05:51:35.130Z,9.10
2018-09-01T05:54:04.061Z,9.20
2018-09-01T05:56:32.999Z,9.40
2018-09-01T05:59:01.959Z,9.60
2018-09-01T06:01:30.907Z,9.80
2018-09-01T06:03:59.870Z,10.00
2018-09-01T06:06:28.978Z,10.20
2018-09-01T06:08:57.830Z,10.40
2018-09-01T06:11:26.763Z,10.70
2018-09-01T06:13:55.708Z,10.80
2018-09-01T06:16:24.655Z,10.90
2018-09-01T06:18:53.607Z,11.10
2018-09-01T06:21:22.567Z,11.40
2018-09-01T06:23:51.543Z,11.60
2018-09-01T06:26:20.489Z,11.90
2018-09-01T06:28:53.984Z,11.90
2018-09-01T06:31:23.195Z,12.10
2018-09-01T06:33:52.154Z,12.30
2018-09-01T06:36:21.134Z,12.40
2018-09-01T06:38:50.071Z,12.50
2018-09-01T06:41:19.166Z,12.70
2018-09-01T06:43:48.168Z,12.80
2018-09-01T06:46:17.122Z,13.00
2018-09-01T06:48:46.087Z,13.10
2018-09-01T06:51:15.030Z,13.30
2018-09-01T06:53:43.974Z,13.60
2018-09-01T06:56:12.964Z,13.80
2018-09-01T06:58:41.949Z,14.00
2018-09-01T07:01:10.912Z,14.20
2018-09-01T07:03:39.838Z,14.40
2018-09-01T07:06:08.807Z,14.60
2018-09-01T07:08:37.780Z,14.80
2018-09-01T07:11:06.793Z,15.00
2018-09-01T07:13:35.734Z,15.20
2018-09-01T07:16:04.857Z,15.30
2018-09-01T07:18:33.887Z,15.40
2018-09-01T07:21:02.818Z,15.70
2018-09-01T07:23:31.760Z,15.90
2018-09-01T07:26:00.978Z,16.20
2018-09-01T07:28:29.929Z,16.40
2018-09-01T07:30:59.237Z,16.60
2018-09-01T07:33:27.886Z,16.70
2018-09-01T07:35:56.892Z,16.90
2018-09-01T07:38:25.852Z,17.00
2018-09-01T07:40:54.805Z,17.40
2018-09-01T07:43:23.757Z,17.60
2018-09-01T07:45:52.720Z,17.80
2018-09-01T07:48:21.669Z,17.90
2018-09-01T07:50:50.609Z,18.00
2018-09-01T07:53:19.540Z,18.20
2018-09-01T07:55:48.483Z,18.20
2018-09-01T07:58:17.453Z,18.30
2018-09-01T08:00:46.495Z,18.40
2018-09-01T08:03:15.422Z,18.50
2018-09-01T08:05:44.444Z,18.60
2018-09-01T08:08:13.535Z,18.70
2018-09-01T08:10:42.466Z,18.70
2018-09-01T08:13:11.401Z,18.80
2018-09-01T08:15:40.397Z,18.80
2018-09-01T08:18:09.329Z,18.80
2018-09-01T08:20:38.275Z,18.90
2018-09-01T08:23:07.212Z,19.00
2018-09-01T08:25:36.243Z,19.10
2018-09-01T08:28:05.288Z,19.20
2018-09-01T08:30:34.297Z,19.20
2018-09-01T08:33:03.361Z,19.30
2018-09-01T08:35:32.297Z,19.50
2018-09-01T08:38:01.392Z,19.60
2018-09-01T08:40:31.233Z,19.70
2018-09-01T08:43:00.242Z,19.80
2018-09-01T08:45:29.266Z,19.90
2018-09-01T08:47:58.166Z,20.00
2018-09-01T08:50:27.120Z,20.20
2018-09-01T08:52:56.097Z,20.20
2018-09-01T08:55:25.024Z,20.10
2018-09-01T08:57:54.002Z,20.10
2018-09-01T09:00:23.023Z,20.20
2018-09-01T09:02:52.011Z,20.20
2018-09-01T09:05:20.974Z,20.00
2018-09-01T09:07:50.014Z,20.00
2018-09-01T09:10:19.286Z,20.20
2018-09-01T09:12:48.379Z,20.40
2018-09-01T09:15:17.465Z,20.40
2018-09-01T09:17:46.468Z,20.20
2018-09-01T09:20:15.622Z,20.40
2018-09-01T09:22:44.571Z,20.20
2018-09-01T09:25:13.523Z,20.40
2018-09-01T09:27:42.487Z,20.40
2018-09-01T09:30:11.529Z,20.80
2018-09-01T09:32:40.469Z,21.00
2018-09-01T09:35:09.417Z,21.30
2018-09-01T09:37:38.362Z,21.60
2018-09-01T09:40:07.464Z,21.50
2018-09-01T09:42:36.466Z,21.60
2018-09-01T09:45:05.450Z,21.70
2018-09-01T09:47:34.451Z,22.00
2018-09-01T09:50:03.444Z,22.10
2018-09-01T09:52:32.399Z,22.20
2018-09-01T09:55:01.377Z,22.60
2018-09-01T09:57:30.315Z,22.70
2018-09-01T09:59:59.282Z,22.70
2018-09-01T10:02:28.243Z,22.30
2018-09-01T10:04:57.169Z,22.20
2018-09-01T10:07:26.150Z,22.10
2018-09-01T10:09:55.105Z,22.00
2018-09-01T10:12:24.074Z,22.20
2018-09-01T10:14:53.047Z,22.40
2018-09-01T10:17:22.031Z,22.40
2018-09-01T10:19:50.983Z,22.40
2018-09-01T10:22:19.958Z,22.40
2018-09-01T10:24:48.918Z,22.60
2018-09-01T10:27:17.830Z,22.90
2018-09-01T10:29:46.762Z,22.80
2018-09-01T10:32:15.738Z,22.40
2018-09-01T10:34:44.682Z,22.60
2018-09-01T10:37:13.638Z,22.80
2018-09-01T10:39:42.606Z,22.70
2018-09-01T10:42:11.588Z,22.50
2018-09-01T10:44:40.806Z,22.40
2018-09-01T10:47:09.742Z,22.30
2018-09-01T10:49:38.696Z,22.70
2018-09-01T10:52:07.682Z,23.00
2018-09-01T10:54:36.626Z,23.40
2018-09-01T10:57:05.588Z,23.40
2018-09-01T10:59:34.653Z,23.30
2018-09-01T11:02:03.498Z,23.00
2018-09-01T11:04:32.457Z,23.30
2018-09-01T11:07:01.429Z,23.40
2018-09-01T11:09:30.402Z,23.30
2018-09-01T11:11:59.333Z,23.20
2018-09-01T11:14:28.295Z,23.10
2018-09-01T11:16:57.260Z,22.70
2018-09-01T11:19:26.249Z,22.90
2018-09-01T11:21:55.238Z,22.80
2018-09-01T11:24:25.190Z,22.70
2018-09-01T11:26:54.173Z,23.00
2018-09-01T11:29:23.087Z,23.10
2018-09-01T11:31:52.014Z,23.40
2018-09-01T11:34:20.966Z,23.60
2018-09-01T11:36:49.941Z,23.90
2018-09-01T11:39:18.854Z,24.10
2018-09-01T11:41:47.782Z,23.90
2018-09-01T11:44:16.767Z,23.70
2018-09-01T11:46:45.720Z,24.00
2018-09-01T11:49:14.950Z,24.30
2018-09-01T11:51:43.893Z,24.40
2018-09-01T11:54:12.862Z,24.30
2018-09-01T11:56:41.934Z,24.10
2018-09-01T11:59:10.902Z,24.00
2018-09-01T12:01:39.851Z,23.80
2018-09-01T12:04:08.814Z,23.50
2018-09-01T12:06:37.775Z,23.50
2018-09-01T12:09:07.120Z,23.70
2018-09-01T12:11:36.003Z,23.80
2018-09-01T12:14:04.936Z,24.00
2018-09-01T12:16:33.902Z,23.90
2018-09-01T12:19:02.909Z,24.30
2018-09-01T12:21:31.874Z,24.40
2018-09-01T12:24:00.799Z,24.20
2018-09-01T12:26:29.756Z,23.80
2018-09-01T12:28:58.715Z,23.40
2018-09-01T12:31:28.657Z,23.30
2018-09-01T12:33:57.606Z,23.00
2018-09-01T12:36:26.643Z,23.00
2018-09-01T12:38:55.578Z,23.00
2018-09-01T12:41:24.530Z,23.20
2018-09-01T12:43:53.478Z,23.70
2018-09-01T12:46:22.404Z,24.00
2018-09-01T12:48:51.626Z,24.00
2018-09-01T12:51:20.562Z,24.00
2018-09-01T12:53:49.507Z,24.00
2018-09-01T12:56:18.543Z,23.80
2018-09-01T12:58:47.484Z,23.50
2018-09-01T13:01:16.447Z,23.40
2018-09-01T13:03:45.403Z,23.50
2018-09-01T13:06:14.628Z,23.40
2018-09-01T13:08:43.602Z,23.30
2018-09-01T13:11:12.541Z,23.30
2018-09-01T13:13:41.478Z,23.50
2018-09-01T13:16:10.401Z,23.60
2018-09-01T13:18:39.347Z,23.70
2018-09-01T13:21:08.297Z,23.70
2018-09-01T13:23:37.225Z,23.80
2018-09-01T13:26:06.229Z,23.70
2018-09-01T13:28:35.155Z,23.60
2018-09-01T13:31:04.161Z,23.50
2018-09-01T13:33:33.167Z,23.80
2018-09-01T13:36:02.139Z,24.10
2018-09-01T13:38:31.114Z,24.10
2018-09-01T13:41:00.047Z,24.40
2018-09-01T13:43:28.985Z,24.30
2018-09-01T13:45:58.022Z,23.80
2018-09-01T13:48:26.926Z,23.30
2018-09-01T13:50:55.869Z,23.00
2018-09-01T13:53:24.814Z,23.00
2018-09-01T13:55:53.814Z,23.20
2018-09-01T13:58:23.107Z,23.40
2018-09-01T14:00:52.034Z,23.60
2018-09-01T14:03:21.135Z,24.10
2018-09-01T14:05:50.127Z,24.20
2018-09-01T14:08:19.048Z,24.50
2018-09-01T14:10:48.001Z,24.60
2018-09-01T14:13:17.073Z,24.50
2018-09-01T14:15:46.013Z,24.10
2018-09-01T14:18:14.979Z,23.90
2018-09-01T14:20:43.947Z,23.60
2018-09-01T14:23:12.893Z,23.50
2018-09-01T14:25:41.869Z,23.50
2018-09-01T14:28:10.813Z,23.50
2018-09-01T14:30:39.787Z,23.10
2018-09-01T14:33:08.887Z,22.90
2018-09-01T14:35:37.807Z,22.80
2018-09-01T14:38:06.789Z,22.90
2018-09-01T14:40:35.807Z,23.10
2018-09-01T14:43:04.794Z,23.30
2018-09-01T14:45:33.858Z,23.50
2018-09-01T14:48:02.811Z,23.70
2018-09-01T14:50:31.773Z,23.90
2018-09-01T14:53:00.726Z,23.80
2018-09-01T14:55:29.695Z,23.80
2018-09-01T14:57:58.701Z,23.80
2018-09-01T15:00:27.989Z,23.70
2018-09-01T15:02:56.921Z,23.90
2018-09-01T15:05:25.878Z,23.80
2018-09-01T15:07:54.872Z,23.70
2018-09-01T15:10:23.863Z,23.50
2018-09-01T15:12:52.774Z,23.10
2018-09-01T15:15:21.724Z,23.00
2018-09-01T15:17:50.713Z,23.00
2018-09-01T15:20:19.667Z,22.90
2018-09-01T15:22:48.687Z,22.80
2018-09-01T15:25:17.779Z,22.90
2018-09-01T15:27:46.724Z,22.90
2018-09-01T15:30:15.674Z,22.80
2018-09-01T15:32:44.727Z,22.50
2018-09-01T15:35:13.679Z,22.40
2018-09-01T15:37:42.728Z,22.30
2018-09-01T15:40:11.830Z,22.20
2018-09-01T15:42:40.824Z,22.10
2018-09-01T15:45:10.077Z,22.00
2018-09-01T15:47:39.024Z,21.90
2018-09-01T15:50:07.946Z,21.90
2018-09-01T15:52:36.921Z,21.90
2018-09-01T15:55:06.550Z,22.10
2018-09-01T15:57:35.521Z,22.00
2018-09-01T16:00:04.529Z,22.00
2018-09-01T16:02:33.486Z,22.00
2018-09-01T16:05:02.463Z,22.00
2018-09-01T16:07:31.500Z,22.20
2018-09-01T16:10:00.434Z,22.20
2018-09-01T16:12:29.382Z,22.40
2018-09-01T16:14:58.317Z,22.50
2018-09-01T16:17:27.298Z,22.40
2018-09-01T16:19:56.243Z,22.50
2018-09-01T16:22:25.288Z,22.50
2018-09-01T16:24:54.286Z,22.40
2018-09-01T16:27:23.249Z,22.50
2018-09-01T16:29:52.301Z,22.40
2018-09-01T16:32:21.311Z,22.20
2018-09-01T16:34:50.438Z,22.10
2018-09-01T16:37:19.446Z,22.00
2018-09-01T16:39:48.441Z,21.90
2018-09-01T16:42:17.454Z,21.80
2018-09-01T16:44:46.423Z,21.80
2018-09-01T16:47:15.441Z,21.80
2018-09-01T16:49:44.422Z,21.70
2018-09-01T16:52:13.470Z,21.70
2018-09-01T16:54:42.415Z,21.70
2018-09-01T16:57:11.397Z,21.60
2018-09-01T16:59:40.410Z,21.50
2018-09-01T17:02:09.392Z,21.50
2018-09-01T17:04:38.403Z,21.50
2018-09-01T17:07:07.415Z,21.50
2018-09-01T17:09:37.421Z,21.60
2018-09-01T17:12:06.521Z,21.70
2018-09-01T17:14:35.473Z,21.70
2018-09-01T17:17:04.494Z,21.70
2018-09-01T17:19:33.563Z,21.70
2018-09-01T17:22:02.578Z,21.60
2018-09-01T17:24:31.822Z,21.40
2018-09-01T17:27:00.745Z,21.30
2018-09-01T17:29:29.757Z,21.20
2018-09-01T17:31:58.727Z,21.00
2018-09-01T17:34:27.670Z,20.80
2018-09-01T17:36:56.626Z,20.70
2018-09-01T17:39:25.612Z,20.60
2018-09-01T17:41:54.603Z,20.40
2018-09-01T17:44:23.537Z,20.30
2018-09-01T17:46:52.516Z,20.30
2018-09-01T17:49:21.555Z,20.20
2018-09-01T17:51:50.458Z,19.90
2018-09-01T17:54:19.410Z,19.90
2018-09-01T17:56:48.373Z,19.80
2018-09-01T17:59:17.335Z,19.70
2018-09-01T18:01:46.286Z,19.60
2018-09-01T18:04:15.223Z,19.50
2018-09-01T18:06:44.216Z,19.30
2018-09-01T18:09:13.144Z,19.20
2018-09-01T18:11:42.111Z,19.10
2018-09-01T18:14:11.198Z,18.90
2018-09-01T18:16:40.210Z,18.70
2018-09-01T18:19:09.093Z,18.60
2018-09-01T18:21:38.226Z,18.40
2018-09-01T18:24:07.211Z,18.30
2018-09-01T18:26:36.182Z,18.20
2018-09-01T18:29:05.248Z,18.10
2018-09-01T18:31:34.199Z,18.00
2018-09-01T18:34:03.141Z,17.80
2018-09-01T18:36:32.287Z,17.70
2018-09-01T18:39:01.269Z,17.70
2018-09-01T18:41:30.250Z,17.60
2018-09-01T18:43:59.186Z,17.50
2018-09-01T18:46:28.111Z,17.40
2018-09-01T18:48:57.085Z,17.30
2018-09-01T18:51:26.065Z,17.20
2018-09-01T18:53:55.257Z,17.10
2018-09-01T18:56:24.205Z,17.00
2018-09-01T18:58:53.247Z,16.80
2018-09-01T19:01:22.984Z,16.70
2018-09-01T19:03:51.961Z,16.60
2018-09-01T19:06:20.926Z,16.50
2018-09-01T19:08:49.932Z,16.40
2018-09-01T19:11:18.869Z,16.30
2018-09-01T19:13:47.856Z,16.20
2018-09-01T19:16:16.774Z,16.10
2018-09-01T19:18:45.751Z,16.00
2018-09-01T19:21:14.730Z,15.90
2018-09-01T19:23:43.668Z,15.80
2018-09-01T19:26:12.953Z,15.70
2018-09-01T19:28:41.921Z,15.60
2018-09-01T19:31:10.965Z,15.60
2018-09-01T19:33:39.962Z,15.50
2018-09-01T19:36:08.920Z,15.40
2018-09-01T19:38:37.961Z,15.30
2018-09-01T19:41:06.940Z,15.20
2018-09-01T19:43:35.918Z,15.20
2018-09-01T19:46:05.150Z,15.10
2018-09-01T19:48:34.139Z,15.00
2018-09-01T19:51:03.082Z,15.00
2018-09-01T19:53:32.075Z,14.90
2018-09-01T19:56:01.366Z,14.90
2018-09-01T19:58:30.319Z,14.90
2018-09-01T20:00:59.509Z,14.80
2018-09-01T20:03:28.475Z,14.80
2018-09-01T20:05:57.482Z,14.70
2018-09-01T20:08:26.718Z,14.70
2018-09-01T20:10:55.756Z,14.60
2018-09-01T20:13:24.709Z,14.50
2018-09-01T20:15:53.754Z,14.40
2018-09-01T20:18:22.759Z,14.30
2018-09-01T20:20:51.753Z,14.30
2018-09-01T20:23:20.721Z,14.20
2018-09-01T20:25:49.737Z,14.20
2018-09-01T20:28:18.702Z,14.10
2018-09-01T20:30:47.970Z,14.00
2018-09-01T20:33:17.015Z,14.00
2018-09-01T20:35:51.173Z,14.00
2018-09-01T20:38:20.170Z,13.90
2018-09-01T20:40:49.151Z,13.90
2018-09-01T20:43:18.117Z,13.80
2018-09-01T20:45:47.206Z,13.80
2018-09-01T20:48:16.193Z,13.70
2018-09-01T20:50:45.153Z,13.70
2018-09-01T20:53:14.090Z,13.60
2018-09-01T20:55:43.055Z,13.60
2018-09-01T20:58:12.257Z,13.60
2018-09-01T21:00:41.370Z,13.50
2018-09-01T21:03:10.867Z,13.40
2018-09-01T21:05:39.873Z,13.40
2018-09-01T21:08:08.823Z,13.40
2018-09-01T21:10:37.786Z,13.40
2018-09-01T21:13:06.718Z,13.30
2018-09-01T21:15:35.766Z,13.30
2018-09-01T21:18:04.898Z,13.30
2018-09-01T21:20:33.842Z,13.20
2018-09-01T21:23:02.845Z,13.10
2018-09-01T21:25:31.805Z,13.10
2018-09-01T21:28:00.746Z,13.10
2018-09-01T21:30:29.710Z,13.10
2018-09-01T21:32:58.705Z,13.10
2018-09-01T21:35:27.730Z,13.00
2018-09-01T21:37:56.859Z,13.00
2018-09-01T21:40:25.889Z,12.90
2018-09-01T21:42:54.900Z,12.90
2018-09-01T21:45:23.920Z,12.90
2018-09-01T21:47:52.900Z,12.90
2018-09-01T21:50:21.857Z,12.80
2018-09-01T21:52:50.824Z,12.80
2018-09-01T21:55:19.805Z,12.80
2018-09-01T21:57:48.725Z,12.80
2018-09-01T22:00:17.713Z,12.80
2018-09-01T22:02:46.666Z,12.80
2018-09-01T22:05:16.664Z,12.80
2018-09-01T22:07:45.822Z,12.70
2018-09-01T22:10:14.791Z,12.70
2018-09-01T22:12:43.723Z,12.60
2018-09-01T22:15:12.668Z,12.60
2018-09-01T22:17:41.626Z,12.60
2018-09-01T22:20:10.598Z,12.60
2018-09-01T22:22:39.569Z,12.50
2018-09-01T22:25:08.620Z,12.50
2018-09-01T22:27:37.540Z,12.50
2018-09-01T22:30:06.502Z,12.40
2018-09-01T22:32:35.472Z,12.40
2018-09-01T22:35:04.413Z,12.40
2018-09-01T22:37:33.366Z,12.30
2018-09-01T22:40:02.326Z,12.30
2018-09-01T22:42:31.302Z,12.30
2018-09-01T22:45:00.262Z,12.30
2018-09-01T22:47:30.590Z,12.20
2018-09-01T22:49:59.582Z,12.20
2018-09-01T22:52:28.535Z,12.20
2018-09-01T22:54:57.479Z,12.20
2018-09-01T22:57:26.756Z,12.20
2018-09-01T22:59:55.644Z,12.20
2018-09-01T23:02:24.601Z,12.20
2018-09-01T23:04:53.641Z,12.30
2018-09-01T23:07:22.588Z,12.30
2018-09-01T23:09:51.573Z,12.30
2018-09-01T23:12:20.536Z,12.30
2018-09-01T23:14:49.533Z,12.30
2018-09-01T23:17:18.499Z,12.30
2018-09-01T23:19:47.465Z,12.30
2018-09-01T23:22:16.686Z,12.30
2018-09-01T23:24:45.665Z,12.30
2018-09-01T23:27:14.629Z,12.30
2018-09-01T23:29:43.582Z,12.20
2018-09-01T23:32:12.770Z,12.30
2018-09-01T23:34:41.765Z,12.20
2018-09-01T23:37:10.742Z,12.20
2018-09-01T23:39:39.695Z,12.20
2018-09-01T23:42:08.678Z,12.20
2018-09-01T23:44:37.615Z,12.20
2018-09-01T23:47:06.602Z,12.10
2018-09-01T23:49:35.580Z,12.00
2018-09-01T23:52:04.534Z,12.00
2018-09-01T23:54:33.547Z,12.00
2018-09-01T23:57:02.512Z,12.00
2018-09-01T23:59:31.546Z,11.90
